createdAt,value
2019-05-07T00:00:36.216Z,58.76
2019-05-07T00:03:05.371Z,59.03
2019-05-07T00:05:34.592Z,59.02
2019-05-07T00:08:03.760Z,59.11
2019-05-07T00:10:33.942Z,59.24
2019-05-07T00:13:03.141Z,59.34
2019-05-07T00:15:32.931Z,59.62
2019-05-07T00:18:03.223Z,59.76
2019-05-07T00:20:32.851Z,59.48
2019-05-07T00:23:02.948Z,59.35
2019-05-07T00:25:32.936Z,59.15
2019-05-07T00:28:02.730Z,59.07
2019-05-07T00:30:33.161Z,58.86
2019-05-07T00:33:02.940Z,58.59
2019-05-07T00:35:33.862Z,58.47
2019-05-07T00:38:04.659Z,58.51
2019-05-07T00:40:42.595Z,58.50
2019-05-07T00:43:13.458Z,58.65
2019-05-07T00:45:56.989Z,58.58
2019-05-07T00:48:26.408Z,59.26
2019-05-07T00:50:57.274Z,59.35
2019-05-07T00:53:26.455Z,59.38
2019-05-07T00:55:55.693Z,59.51
2019-05-07T00:58:26.882Z,59.48
2019-05-07T01:00:55.982Z,59.40
2019-05-07T01:03:25.145Z,59.46
2019-05-07T01:05:54.312Z,59.41
2019-05-07T01:08:23.499Z,59.27
2019-05-07T01:10:53.074Z,59.31
2019-05-07T01:13:23.334Z,59.34
2019-05-07T01:15:53.314Z,59.48
2019-05-07T01:18:23.342Z,59.52
2019-05-07T01:20:53.346Z,59.51
2019-05-07T01:23:23.170Z,59.46
2019-05-07T01:25:52.933Z,59.51
2019-05-07T01:28:22.382Z,59.46
2019-05-07T01:30:52.747Z,59.27
2019-05-07T01:33:42.252Z,59.09
2019-05-07T01:36:13.329Z,58.95
2019-05-07T01:38:42.794Z,58.98
2019-05-07T01:41:12.557Z,59.02
2019-05-07T01:43:43.041Z,59.09
2019-05-07T01:46:12.447Z,59.26
2019-05-07T01:51:03.392Z,59.31
2019-05-07T01:53:32.771Z,59.83
2019-05-07T01:56:03.215Z,59.76
2019-05-07T01:58:33.284Z,59.83
2019-05-07T02:01:02.992Z,59.60
2019-05-07T02:03:33.876Z,59.75
2019-05-07T02:06:04.689Z,60.05
2019-05-07T02:08:47.845Z,60.29
2019-05-07T02:11:28.186Z,60.19
2019-05-07T02:13:57.329Z,60.24
2019-05-07T02:16:26.574Z,60.37
2019-05-07T02:18:55.738Z,60.35
2019-05-07T02:21:24.899Z,60.47
2019-05-07T02:23:54.074Z,60.43
2019-05-07T02:26:23.379Z,60.62
2019-05-07T02:28:52.517Z,60.69
2019-05-07T02:31:23.223Z,60.88
2019-05-07T02:33:54.036Z,60.94
2019-05-07T02:36:24.018Z,61.01
2019-05-07T02:38:54.968Z,61.24
2019-05-07T02:41:32.990Z,61.71
2019-05-07T02:44:04.281Z,61.44
2019-05-07T02:46:43.763Z,61.45
2019-05-07T02:49:26.339Z,61.50
2019-05-07T02:51:57.137Z,61.26
2019-05-07T02:54:32.903Z,61.17
2019-05-07T02:57:03.136Z,60.83
2019-05-07T02:59:33.684Z,60.96
2019-05-07T03:02:03.756Z,60.69
2019-05-07T03:04:33.464Z,60.59
2019-05-07T03:07:03.981Z,60.42
2019-05-07T03:09:33.027Z,60.39
2019-05-07T03:12:04.030Z,60.13
2019-05-07T03:14:33.054Z,60.03
2019-05-07T03:17:02.999Z,60.56
2019-05-07T03:19:34.141Z,60.37
2019-05-07T03:22:04.039Z,60.25
2019-05-07T03:24:38.149Z,60.21
2019-05-07T03:27:07.540Z,60.20
2019-05-07T03:29:38.522Z,60.83
2019-05-07T03:32:27.571Z,60.75
2019-05-07T03:35:06.045Z,60.63
2019-05-07T03:37:36.294Z,60.36
2019-05-07T03:40:06.332Z,60.21
2019-05-07T03:42:35.482Z,60.20
2019-05-07T03:45:23.377Z,60.33
2019-05-07T03:47:54.340Z,60.20
2019-05-07T03:50:23.568Z,60.62
2019-05-07T03:52:54.290Z,60.60
2019-05-07T03:55:23.725Z,60.80
2019-05-07T03:57:52.932Z,60.94
2019-05-07T04:00:23.908Z,60.70
2019-05-07T04:02:53.183Z,60.66
2019-05-07T04:05:23.372Z,60.68
2019-05-07T04:07:53.914Z,60.67
2019-05-07T04:10:23.556Z,60.71
2019-05-07T04:12:53.284Z,60.71
2019-05-07T04:15:23.462Z,60.88
2019-05-07T04:17:53.615Z,60.83
2019-05-07T04:20:24.064Z,60.98
2019-05-07T04:22:53.791Z,60.74
2019-05-07T04:25:43.525Z,60.70
2019-05-07T04:28:25.624Z,60.99
2019-05-07T04:30:56.056Z,61.20
2019-05-07T04:33:26.852Z,61.82
2019-05-07T04:36:06.995Z,61.98
2019-05-07T04:38:36.155Z,61.92
2019-05-07T04:41:05.324Z,61.87
2019-05-07T04:43:34.509Z,61.58
2019-05-07T04:46:03.691Z,61.37
2019-05-07T04:48:34.159Z,61.32
2019-05-07T04:51:05.303Z,61.41
2019-05-07T04:53:34.459Z,61.34
2019-05-07T04:56:03.613Z,61.37
2019-05-07T04:58:33.954Z,61.52
2019-05-07T05:01:05.568Z,61.51
2019-05-07T05:03:38.975Z,61.63
2019-05-07T05:06:06.003Z,61.57
2019-05-07T05:08:35.172Z,61.70
2019-05-07T05:11:04.473Z,61.81
2019-05-07T05:13:33.644Z,61.99
2019-05-07T05:16:04.448Z,61.76
2019-05-07T05:18:33.613Z,61.58
2019-05-07T05:21:04.463Z,61.38
2019-05-07T05:23:41.925Z,61.32
2019-05-07T05:26:12.566Z,61.67
2019-05-07T05:28:42.096Z,62.11
2019-05-07T05:31:12.663Z,62.18
2019-05-07T05:33:42.177Z,61.99
2019-05-07T05:36:12.690Z,62.29
2019-05-07T05:38:42.514Z,62.24
2019-05-07T05:41:12.298Z,62.28
2019-05-07T05:43:55.388Z,62.39
2019-05-07T05:46:26.260Z,62.78
2019-05-07T05:49:02.684Z,62.80
2019-05-07T05:51:42.978Z,63.12
2019-05-07T05:54:33.572Z,63.33
2019-05-07T05:57:23.955Z,63.83
2019-05-07T06:00:02.606Z,63.95
2019-05-07T06:05:33.891Z,64.12
2019-05-07T06:08:03.696Z,63.69
2019-05-07T06:10:37.641Z,63.45
2019-05-07T06:13:17.241Z,63.17
2019-05-07T06:15:53.742Z,63.12
2019-05-07T06:18:41.728Z,62.91
2019-05-07T06:21:12.672Z,62.99
2019-05-07T06:23:43.457Z,62.79
2019-05-07T06:26:12.830Z,63.23
2019-05-07T06:28:42.620Z,63.57
2019-05-07T06:31:15.034Z,63.17
2019-05-07T06:33:49.611Z,63.17
2019-05-07T06:36:22.998Z,63.39
2019-05-07T06:39:01.944Z,63.74
2019-05-07T06:41:54.637Z,63.56
2019-05-07T06:44:25.962Z,63.81
2019-05-07T06:46:55.121Z,63.65
2019-05-07T06:49:24.435Z,63.65
2019-05-07T06:51:53.715Z,63.82
2019-05-07T06:54:27.474Z,64.20
2019-05-07T06:56:57.508Z,63.59
2019-05-07T06:59:34.852Z,63.59
2019-05-07T07:02:23.593Z,63.59
2019-05-07T07:05:02.676Z,63.71
2019-05-07T07:07:37.581Z,63.66
2019-05-07T07:10:22.666Z,63.19
2019-05-07T07:12:53.546Z,63.05
2019-05-07T07:15:25.565Z,62.71
2019-05-07T07:17:59.133Z,62.45
2019-05-07T07:20:28.439Z,61.98
2019-05-07T07:22:57.637Z,62.15
2019-05-07T07:25:26.814Z,61.82
2019-05-07T07:27:55.985Z,61.63
2019-05-07T07:30:27.124Z,61.77
2019-05-07T07:32:59.682Z,61.30
2019-05-07T07:35:32.038Z,61.04
2019-05-07T07:38:02.569Z,61.46
2019-05-07T07:40:36.756Z,61.06
2019-05-07T07:43:07.130Z,61.18
2019-05-07T07:45:36.498Z,60.79
2019-05-07T07:48:09.032Z,60.66
2019-05-07T07:50:38.210Z,60.24
2019-05-07T07:53:07.810Z,59.55
2019-05-07T07:55:42.580Z,59.55
2019-05-07T07:58:22.161Z,59.50
2019-05-07T08:00:58.606Z,59.04
2019-05-07T08:03:28.634Z,58.70
2019-05-07T08:06:03.417Z,58.59
2019-05-07T08:08:43.914Z,58.39
2019-05-07T08:11:15.285Z,58.33
2019-05-07T08:13:49.486Z,58.41
2019-05-07T08:16:24.387Z,58.54
2019-05-07T08:18:57.530Z,58.40
2019-05-07T08:21:26.846Z,58.53
2019-05-07T08:24:02.739Z,58.37
2019-05-07T08:26:33.344Z,58.41
2019-05-07T08:29:08.421Z,57.34
2019-05-07T08:31:45.995Z,56.88
2019-05-07T08:34:31.992Z,56.62
2019-05-07T08:37:01.863Z,57.09
2019-05-07T08:39:40.108Z,55.69
2019-05-07T08:42:09.319Z,55.20
2019-05-07T08:44:47.503Z,55.18
2019-05-07T08:47:22.847Z,55.05
2019-05-07T08:49:59.230Z,54.93
2019-05-07T08:52:29.585Z,55.10
2019-05-07T08:54:59.410Z,55.58
2019-05-07T08:57:31.900Z,55.97
2019-05-07T09:00:05.274Z,56.86
2019-05-07T09:02:34.519Z,56.26
2019-05-07T09:05:05.324Z,56.53
2019-05-07T09:07:34.507Z,55.94
2019-05-07T09:10:07.701Z,55.86
2019-05-07T09:12:48.324Z,56.26
2019-05-07T09:15:19.763Z,56.65
2019-05-07T09:17:52.657Z,56.94
2019-05-07T09:20:28.711Z,56.93
2019-05-07T09:22:58.401Z,56.98
2019-05-07T09:25:29.331Z,57.13
2019-05-07T09:28:02.736Z,57.70
2019-05-07T09:30:52.466Z,57.63
2019-05-07T09:33:26.354Z,57.67
2019-05-07T09:36:02.251Z,57.22
2019-05-07T09:38:34.901Z,57.18
2019-05-07T09:41:05.257Z,57.34
2019-05-07T09:43:36.105Z,56.85
2019-05-07T09:46:16.375Z,56.87
2019-05-07T09:48:48.624Z,56.92
2019-05-07T09:51:22.771Z,56.74
2019-05-07T09:53:52.617Z,56.43
2019-05-07T09:56:25.537Z,56.37
2019-05-07T09:58:56.386Z,56.81
2019-05-07T10:01:27.482Z,55.51
2019-05-07T10:03:56.692Z,55.12
2019-05-07T10:06:25.858Z,55.51
2019-05-07T10:08:59.013Z,55.80
2019-05-07T10:11:34.360Z,55.81
2019-05-07T10:14:12.211Z,56.02
2019-05-07T10:16:45.238Z,55.76
2019-05-07T10:19:17.037Z,55.35
2019-05-07T10:21:52.943Z,55.71
2019-05-07T10:24:28.618Z,55.49
2019-05-07T10:27:07.294Z,54.99
2019-05-07T10:29:42.722Z,55.66
2019-05-07T10:32:12.802Z,55.77
2019-05-07T10:34:43.052Z,55.51
2019-05-07T10:37:16.298Z,55.05
2019-05-07T10:39:45.754Z,55.19
2019-05-07T10:42:18.632Z,55.02
2019-05-07T10:45:09.047Z,54.30
2019-05-07T10:47:46.802Z,55.02
2019-05-07T10:50:34.535Z,54.71
2019-05-07T10:52:54.538Z,54.58
2019-05-07T10:55:29.358Z,54.61
2019-05-07T10:57:58.567Z,54.15
2019-05-07T11:00:30.296Z,54.56
2019-05-07T11:03:02.423Z,53.74
2019-05-07T11:05:38.112Z,54.46
2019-05-07T11:08:13.071Z,54.40
2019-05-07T11:10:45.112Z,54.36
2019-05-07T11:13:14.382Z,54.56
2019-05-07T11:15:47.428Z,54.28
2019-05-07T11:18:28.749Z,54.28
2019-05-07T11:20:58.120Z,54.03
2019-05-07T11:23:27.346Z,52.87
2019-05-07T11:28:32.339Z,53.12
2019-05-07T11:31:02.233Z,53.63
2019-05-07T11:33:33.213Z,53.22
2019-05-07T11:36:07.860Z,51.90
2019-05-07T11:38:42.244Z,52.32
2019-05-07T11:41:13.689Z,52.31
2019-05-07T11:43:49.283Z,52.55
2019-05-07T11:46:22.096Z,51.99
2019-05-07T11:51:58.387Z,51.63
2019-05-07T11:54:28.626Z,51.53
2019-05-07T11:57:02.802Z,52.09
2019-05-07T11:59:32.607Z,52.18
2019-05-07T12:02:02.819Z,52.11
2019-05-07T12:04:38.361Z,52.66
2019-05-07T12:07:11.881Z,52.69
2019-05-07T12:09:52.490Z,51.92
2019-05-07T12:12:25.793Z,52.11
2019-05-07T12:15:02.309Z,53.07
2019-05-07T12:17:32.945Z,53.00
2019-05-07T12:20:08.556Z,52.61
2019-05-07T12:22:47.823Z,52.56
2019-05-07T12:25:19.976Z,52.86
2019-05-07T12:27:52.038Z,52.17
2019-05-07T12:30:43.004Z,51.89
2019-05-07T12:33:34.081Z,51.93
2019-05-07T12:36:03.678Z,51.98
2019-05-07T12:38:34.376Z,51.36
2019-05-07T12:41:26.806Z,51.67
2019-05-07T12:44:02.578Z,51.47
2019-05-07T12:46:33.540Z,51.05
2019-05-07T12:49:08.344Z,49.96
2019-05-07T12:51:42.366Z,50.89
2019-05-07T12:54:25.105Z,50.72
2019-05-07T12:56:54.227Z,49.91
2019-05-07T12:59:27.009Z,50.21
2019-05-07T13:02:16.480Z,49.92
2019-05-07T13:04:37.426Z,49.51
2019-05-07T13:07:30.107Z,49.03
2019-05-07T13:10:02.651Z,49.51
2019-05-07T13:12:36.876Z,48.98
2019-05-07T13:15:21.895Z,48.82
2019-05-07T13:17:39.124Z,48.98
2019-05-07T13:20:08.875Z,50.11
2019-05-07T13:22:38.592Z,50.32
2019-05-07T13:25:10.266Z,49.60
2019-05-07T13:27:40.211Z,50.43
2019-05-07T13:30:12.346Z,48.37
2019-05-07T13:32:45.028Z,48.54
2019-05-07T13:35:16.337Z,48.48
2019-05-07T13:38:05.087Z,48.33
2019-05-07T13:40:42.318Z,47.91
2019-05-07T13:43:20.006Z,48.17
2019-05-07T13:45:53.117Z,48.32
2019-05-07T13:48:23.994Z,48.39
2019-05-07T13:50:54.684Z,48.53
2019-05-07T13:53:26.884Z,48.93
2019-05-07T13:55:56.853Z,49.21
2019-05-07T13:58:32.732Z,49.28
2019-05-07T14:01:12.048Z,49.44
2019-05-07T14:03:42.270Z,49.22
2019-05-07T14:06:16.504Z,48.72
2019-05-07T14:08:52.672Z,48.83
2019-05-07T14:11:25.371Z,48.44
2019-05-07T14:14:01.797Z,49.26
2019-05-07T14:16:33.540Z,49.25
2019-05-07T14:19:06.375Z,49.78
2019-05-07T14:21:46.215Z,50.01
2019-05-07T14:24:22.570Z,50.60
2019-05-07T14:26:54.338Z,50.53
2019-05-07T14:29:25.656Z,50.60
2019-05-07T14:32:17.525Z,50.44
2019-05-07T14:35:05.167Z,50.31
2019-05-07T14:37:39.046Z,50.30
2019-05-07T14:40:13.668Z,50.94
2019-05-07T14:42:48.407Z,51.31
2019-05-07T14:45:19.320Z,51.86
2019-05-07T14:47:52.205Z,52.16
2019-05-07T14:50:25.064Z,52.55
2019-05-07T14:52:58.948Z,52.52
2019-05-07T14:55:29.783Z,52.53
2019-05-07T14:58:04.719Z,52.68
2019-05-07T15:00:36.589Z,52.70
2019-05-07T15:03:07.978Z,53.05
2019-05-07T15:05:37.674Z,53.12
2019-05-07T15:08:11.758Z,53.61
2019-05-07T15:10:46.148Z,53.83
2019-05-07T15:13:15.667Z,53.95
2019-05-07T15:15:47.351Z,54.34
2019-05-07T15:18:32.178Z,54.53
2019-05-07T15:21:02.748Z,54.80
2019-05-07T15:23:34.212Z,55.27
2019-05-07T15:26:06.186Z,55.30
2019-05-07T15:28:41.776Z,55.67
2019-05-07T15:31:17.586Z,55.80
2019-05-07T15:33:48.842Z,56.08
2019-05-07T15:36:19.982Z,56.44
2019-05-07T15:38:52.735Z,56.38
2019-05-07T15:41:28.076Z,56.34
2019-05-07T15:43:58.962Z,56.15
2019-05-07T15:46:28.341Z,56.05
2019-05-07T15:48:57.545Z,55.63
2019-05-07T15:51:29.137Z,55.39
2019-05-07T15:53:59.618Z,55.39
2019-05-07T15:56:28.836Z,55.63
2019-05-07T15:58:58.229Z,55.30
2019-05-07T16:01:28.268Z,55.34
2019-05-07T16:03:58.137Z,55.52
2019-05-07T16:06:26.582Z,55.50
2019-05-07T16:08:58.991Z,55.46
2019-05-07T16:11:28.301Z,55.60
2019-05-07T16:14:05.262Z,55.83
2019-05-07T16:16:37.124Z,55.97
2019-05-07T16:19:07.972Z,55.79
2019-05-07T16:21:37.124Z,55.97
2019-05-07T16:24:06.409Z,55.88
2019-05-07T16:26:35.592Z,56.11
2019-05-07T16:29:05.328Z,56.14
2019-05-07T16:31:33.829Z,56.48
2019-05-07T16:34:03.060Z,56.31
2019-05-07T16:36:32.859Z,56.27
2019-05-07T16:39:03.442Z,56.07
2019-05-07T16:41:33.052Z,55.99
2019-05-07T16:44:05.011Z,56.07
2019-05-07T16:46:34.194Z,56.30
2019-05-07T16:49:04.332Z,56.46
2019-05-07T16:51:33.787Z,56.75
2019-05-07T16:54:03.514Z,57.09
2019-05-07T16:56:33.332Z,57.20
2019-05-07T16:59:08.601Z,57.15
2019-05-07T17:01:37.779Z,57.21
2019-05-07T17:04:06.988Z,57.19
2019-05-07T17:06:36.175Z,56.90
2019-05-07T17:09:13.229Z,56.94
2019-05-07T17:11:45.047Z,56.69
2019-05-07T17:14:14.215Z,56.88
2019-05-07T17:16:43.418Z,57.13
2019-05-07T17:19:14.067Z,57.11
2019-05-07T17:21:43.252Z,57.16
2019-05-07T17:24:13.525Z,57.23
2019-05-07T17:26:45.013Z,57.20
2019-05-07T17:29:14.262Z,57.33
2019-05-07T17:31:43.783Z,57.55
2019-05-07T17:34:13.023Z,57.29
2019-05-07T17:36:42.458Z,57.22
2019-05-07T17:39:12.295Z,57.22
2019-05-07T17:41:42.940Z,57.31
2019-05-07T17:44:12.385Z,57.38
2019-05-07T17:46:42.855Z,57.47
2019-05-07T17:49:12.518Z,57.49
2019-05-07T17:51:43.465Z,57.52
2019-05-07T17:54:13.474Z,57.60
2019-05-07T17:56:44.415Z,58.01
2019-05-07T17:59:14.349Z,58.09
2019-05-07T18:01:54.459Z,58.26
2019-05-07T18:04:23.832Z,58.44
2019-05-07T18:06:52.986Z,58.57
2019-05-07T18:09:22.628Z,58.67
2019-05-07T18:11:54.420Z,58.72
2019-05-07T18:14:23.602Z,58.84
2019-05-07T18:16:57.631Z,58.65
2019-05-07T18:19:28.511Z,58.68
2019-05-07T18:22:02.653Z,58.68
2019-05-07T18:24:32.631Z,58.82
2019-05-07T18:27:03.325Z,59.07
2019-05-07T18:29:32.603Z,58.96
2019-05-07T18:32:06.394Z,59.05
2019-05-07T18:34:35.592Z,59.05
2019-05-07T18:37:04.851Z,59.13
2019-05-07T18:39:34.213Z,59.38
2019-05-07T18:42:03.987Z,59.30
2019-05-07T18:44:32.464Z,59.30
2019-05-07T18:47:03.587Z,59.08
2019-05-07T18:49:32.788Z,59.13
2019-05-07T18:52:02.923Z,59.40
2019-05-07T18:54:32.156Z,59.44
2019-05-07T18:57:02.289Z,59.56
2019-05-07T18:59:34.212Z,59.50
2019-05-07T19:02:03.658Z,59.59
2019-05-07T19:04:34.182Z,59.47
2019-05-07T19:07:03.398Z,59.46
2019-05-07T19:10:02.758Z,59.62
2019-05-07T19:12:33.624Z,59.76
2019-05-07T19:15:03.115Z,59.89
2019-05-07T19:17:32.438Z,60.19
2019-05-07T19:20:03.389Z,60.37
2019-05-07T19:22:33.091Z,60.14
2019-05-07T19:25:03.032Z,60.12
2019-05-07T19:27:32.842Z,59.98
2019-05-07T19:30:02.067Z,59.89
2019-05-07T19:32:32.276Z,59.75
2019-05-07T19:35:04.360Z,59.50
2019-05-07T19:37:33.486Z,59.23
2019-05-07T19:40:05.510Z,58.96
2019-05-07T19:42:39.497Z,58.93
2019-05-07T19:45:12.787Z,58.82
2019-05-07T19:47:45.431Z,58.67
2019-05-07T19:50:14.659Z,58.68
2019-05-07T19:52:43.871Z,58.62
2019-05-07T19:55:13.044Z,58.67
2019-05-07T19:57:43.844Z,58.55
2019-05-07T20:00:15.482Z,58.57
2019-05-07T20:02:46.282Z,58.59
2019-05-07T20:05:15.532Z,58.44
2019-05-07T20:07:44.764Z,58.52
2019-05-07T20:10:16.237Z,58.49
2019-05-07T20:12:45.410Z,58.45
2019-05-07T20:15:17.396Z,58.42
2019-05-07T20:17:47.928Z,58.47
2019-05-07T20:20:23.170Z,58.46
2019-05-07T20:22:56.119Z,58.57
2019-05-07T20:25:29.302Z,58.70
2019-05-07T20:27:59.469Z,58.84
2019-05-07T20:30:48.018Z,58.86
2019-05-07T20:33:17.184Z,58.93
2019-05-07T20:35:46.380Z,59.31
2019-05-07T20:38:18.366Z,59.27
2019-05-07T20:40:52.085Z,59.42
2019-05-07T20:43:23.074Z,59.60
2019-05-07T20:48:49.565Z,59.51
2019-05-07T20:51:23.141Z,59.28
2019-05-07T20:53:59.745Z,59.41
2019-05-07T20:59:29.162Z,59.50
2019-05-07T21:02:06.048Z,59.38
2019-05-07T21:04:42.473Z,59.40
2019-05-07T21:07:14.568Z,59.35
2019-05-07T21:09:53.252Z,59.33
2019-05-07T21:15:04.989Z,59.76
2019-05-07T21:17:37.190Z,59.78
2019-05-07T21:20:07.401Z,59.81
2019-05-07T21:22:38.443Z,59.80
2019-05-07T21:25:12.026Z,59.78
2019-05-07T21:27:43.169Z,60.00
2019-05-07T21:30:17.632Z,60.25
2019-05-07T21:32:52.321Z,60.15
2019-05-07T21:35:47.844Z,60.43
2019-05-07T21:38:22.292Z,60.36
2019-05-07T21:40:55.535Z,60.47
2019-05-07T21:43:24.766Z,60.37
2019-05-07T21:45:53.916Z,60.42
2019-05-07T21:48:23.089Z,60.68
2019-05-07T21:50:52.519Z,60.97
2019-05-07T21:53:35.171Z,60.93
2019-05-07T21:56:15.001Z,61.08
2019-05-07T21:58:53.900Z,61.02
2019-05-07T22:01:32.794Z,60.54
2019-05-07T22:04:02.083Z,60.66
2019-05-07T22:06:31.217Z,60.57
2019-05-07T22:09:01.947Z,60.64
2019-05-07T22:11:32.293Z,60.66
2019-05-07T22:14:02.182Z,60.57
2019-05-07T22:16:32.192Z,60.36
2019-05-07T22:19:02.686Z,60.09
2019-05-07T22:21:34.164Z,60.41
2019-05-07T22:24:03.022Z,60.69
2019-05-07T22:26:32.450Z,60.77
2019-05-07T22:29:03.196Z,60.74
2019-05-07T22:31:46.084Z,60.87
2019-05-07T22:34:16.883Z,60.88
2019-05-07T22:36:46.054Z,60.80
2019-05-07T22:39:15.238Z,60.95
2019-05-07T22:41:44.392Z,60.85
2019-05-07T22:44:13.583Z,60.94
2019-05-07T22:46:42.852Z,60.74
2019-05-07T22:49:12.334Z,60.57
2019-05-07T22:51:41.536Z,60.55
2019-05-07T22:54:11.828Z,60.52
2019-05-07T22:56:57.858Z,60.52
2019-05-07T22:59:27.292Z,60.39
2019-05-07T23:01:56.456Z,60.39
2019-05-07T23:04:25.617Z,60.41
2019-05-07T23:06:54.809Z,60.54
2019-05-07T23:09:23.966Z,60.61
2019-05-07T23:11:55.012Z,60.65
2019-05-07T23:14:24.441Z,60.88
2019-05-07T23:16:55.350Z,61.24
2019-05-07T23:19:24.478Z,61.34
2019-05-07T23:21:53.657Z,61.58
2019-05-07T23:24:24.980Z,61.44
2019-05-07T23:26:53.939Z,61.42
2019-05-07T23:29:23.262Z,61.61
2019-05-07T23:31:57.755Z,61.53
2019-05-07T23:34:28.226Z,61.76
2019-05-07T23:36:58.484Z,61.86
2019-05-07T23:39:30.687Z,61.90
2019-05-07T23:42:09.720Z,61.84
2019-05-07T23:44:38.960Z,61.73
2019-05-07T23:47:08.132Z,61.56
2019-05-07T23:49:37.303Z,61.51
2019-05-07T23:52:06.518Z,61.30
2019-05-07T23:54:35.669Z,61.31
2019-05-07T23:57:14.803Z,61.19
2019-05-07T23:59:44.676Z,61.17
